createdAt,value
2018-06-03T00:00:43.067Z,96008
2018-06-03T00:03:14.631Z,96016
2018-06-03T00:05:45.895Z,96022
2018-06-03T00:08:15.446Z,96013
2018-06-03T00:10:45.359Z,96026
2018-06-03T00:13:15.689Z,96018
2018-06-03T00:15:44.926Z,96020
2018-06-03T00:18:14.851Z,96019
2018-06-03T00:21:01.863Z,96019
2018-06-03T00:23:30.985Z,96019
2018-06-03T00:26:00.241Z,96015
2018-06-03T00:28:29.307Z,96016
2018-06-03T00:30:58.400Z,96022
2018-06-03T00:33:27.704Z,96017
2018-06-03T00:36:14.578Z,96004
2018-06-03T00:38:45.720Z,96016
2018-06-03T00:41:14.875Z,96006
2018-06-03T00:43:43.937Z,96009
2018-06-03T00:46:13.060Z,96008
2018-06-03T00:48:42.151Z,96005
2018-06-03T00:51:11.168Z,96007
2018-06-03T00:53:40.941Z,96005
2018-06-03T00:56:09.988Z,96001
2018-06-03T00:58:39.004Z,96009
2018-06-03T01:01:08.041Z,96000
2018-06-03T01:03:37.048Z,95989
2018-06-03T01:06:06.111Z,95986
2018-06-03T01:08:35.124Z,95998
2018-06-03T01:11:04.123Z,95987
2018-06-03T01:13:33.989Z,95983
2018-06-03T01:16:03.017Z,95986
2018-06-03T01:18:32.015Z,96013
2018-06-03T01:21:01.062Z,95994
2018-06-03T01:23:30.413Z,95992
2018-06-03T01:25:59.418Z,95988
2018-06-03T01:28:29.196Z,95987
2018-06-03T01:30:58.233Z,95989
2018-06-03T01:33:28.003Z,95984
2018-06-03T01:35:57.047Z,95985
2018-06-03T01:38:26.135Z,95984
2018-06-03T01:40:55.143Z,95982
2018-06-03T01:43:24.162Z,95983
2018-06-03T01:45:53.226Z,95965
2018-06-03T01:48:22.236Z,95974
2018-06-03T01:50:51.251Z,95966
2018-06-03T01:53:20.292Z,95974
2018-06-03T01:55:49.318Z,95960
2018-06-03T01:58:18.354Z,95961
2018-06-03T02:00:47.362Z,95959
2018-06-03T02:03:17.159Z,95961
2018-06-03T02:05:46.171Z,95960
2018-06-03T02:08:15.252Z,95962
2018-06-03T02:10:45.023Z,95958
2018-06-03T02:13:14.044Z,95960
2018-06-03T02:15:43.143Z,95957
2018-06-03T02:18:12.919Z,95953
2018-06-03T02:20:41.923Z,95947
2018-06-03T02:23:11.014Z,95959
2018-06-03T02:25:40.043Z,95940
2018-06-03T02:28:09.832Z,95947
2018-06-03T02:30:38.867Z,95942
2018-06-03T02:33:07.891Z,95951
2018-06-03T02:35:36.934Z,95948
2018-06-03T02:38:06.709Z,95947
2018-06-03T02:40:35.862Z,95939
2018-06-03T02:43:04.887Z,95939
2018-06-03T02:45:33.902Z,95942
2018-06-03T02:48:02.937Z,95947
2018-06-03T02:50:31.956Z,95941
2018-06-03T02:53:01.009Z,95936
2018-06-03T02:55:30.821Z,95948
2018-06-03T02:57:59.829Z,95947
2018-06-03T03:00:28.873Z,95941
2018-06-03T03:02:57.884Z,95949
2018-06-03T03:05:26.923Z,95936
2018-06-03T03:07:55.950Z,95942
2018-06-03T03:10:24.947Z,95942
2018-06-03T03:12:54.002Z,95938
2018-06-03T03:15:23.013Z,95935
2018-06-03T03:17:52.031Z,95938
2018-06-03T03:20:21.100Z,95942
2018-06-03T03:22:50.112Z,95931
2018-06-03T03:25:19.119Z,95937
2018-06-03T03:27:48.161Z,95932
2018-06-03T03:30:17.455Z,95931
2018-06-03T03:32:46.493Z,95929
2018-06-03T03:35:15.506Z,95941
2018-06-03T03:37:44.545Z,95936
2018-06-03T03:40:13.553Z,95934
2018-06-03T03:42:42.619Z,95936
2018-06-03T03:45:12.158Z,95941
2018-06-03T03:47:41.167Z,95942
2018-06-03T03:50:10.222Z,95951
2018-06-03T03:52:39.237Z,95952
2018-06-03T03:55:08.239Z,95951
2018-06-03T03:57:37.274Z,95944
2018-06-03T04:00:06.279Z,95951
2018-06-03T04:02:35.319Z,95961
2018-06-03T04:05:04.331Z,95949
2018-06-03T04:07:34.137Z,95949
2018-06-03T04:10:03.236Z,95942
2018-06-03T04:12:32.275Z,95953
2018-06-03T04:15:01.288Z,95956
2018-06-03T04:17:30.323Z,95960
2018-06-03T04:19:59.337Z,95959
2018-06-03T04:22:28.378Z,95973
2018-06-03T04:24:57.383Z,95972
2018-06-03T04:27:26.427Z,95972
2018-06-03T04:29:55.438Z,95966
2018-06-03T04:32:24.461Z,95966
2018-06-03T04:34:53.503Z,95976
2018-06-03T04:37:22.506Z,95964
2018-06-03T04:39:51.547Z,95965
2018-06-03T04:42:20.553Z,95964
2018-06-03T04:44:50.375Z,95970
2018-06-03T04:47:19.380Z,95965
2018-06-03T04:49:48.387Z,95970
2018-06-03T04:52:17.426Z,95967
2018-06-03T04:54:46.475Z,95965
2018-06-03T04:57:15.484Z,95978
2018-06-03T04:59:44.527Z,95972
2018-06-03T05:02:14.298Z,95965
2018-06-03T05:04:43.338Z,95960
2018-06-03T05:07:12.343Z,95967
2018-06-03T05:09:41.383Z,95964
2018-06-03T05:12:10.394Z,95959
2018-06-03T05:14:39.434Z,95966
2018-06-03T05:17:08.471Z,95966
2018-06-03T05:19:37.908Z,95959
2018-06-03T05:22:06.931Z,95964
2018-06-03T05:24:35.951Z,95964
2018-06-03T05:27:04.997Z,95964
2018-06-03T05:29:34.767Z,95956
2018-06-03T05:32:03.810Z,95963
2018-06-03T05:34:32.928Z,95960
2018-06-03T05:37:01.984Z,95966
2018-06-03T05:39:31.767Z,95962
2018-06-03T05:42:00.850Z,95955
2018-06-03T05:44:29.869Z,95956
2018-06-03T05:46:58.926Z,95964
2018-06-03T05:49:28.363Z,95954
2018-06-03T05:51:57.371Z,95958
2018-06-03T05:54:27.173Z,95954
2018-06-03T05:56:56.955Z,95962
2018-06-03T05:59:26.007Z,95946
2018-06-03T06:01:55.094Z,95951
2018-06-03T06:04:24.871Z,95953
2018-06-03T06:06:53.959Z,95954
2018-06-03T06:09:23.008Z,95957
2018-06-03T06:11:52.055Z,95953
2018-06-03T06:14:21.237Z,95953
2018-06-03T06:16:50.289Z,95956
2018-06-03T06:19:19.302Z,95960
2018-06-03T06:21:48.343Z,95960
2018-06-03T06:24:17.430Z,95963
2018-06-03T06:26:46.503Z,95960
2018-06-03T06:29:15.557Z,95594
2018-06-03T06:31:44.595Z,95963
2018-06-03T06:34:13.607Z,95959
2018-06-03T06:36:42.639Z,95962
2018-06-03T06:39:11.767Z,95972
2018-06-03T06:42:11.787Z,95962.00
2018-06-03T06:44:42.767Z,95971.00
2018-06-03T06:47:12.999Z,95957.00
2018-06-03T06:49:43.203Z,95971.00
2018-06-03T06:52:13.454Z,95975.00
2018-06-03T06:54:43.846Z,95974.00
2018-06-03T06:57:14.154Z,95974.00
2018-06-03T06:59:44.611Z,95972.00
2018-06-03T07:02:14.853Z,95975.00
2018-06-03T07:04:45.104Z,95984.00
2018-06-03T07:07:15.335Z,95986.00
2018-06-03T07:09:45.555Z,95987.00
2018-06-03T07:12:15.823Z,95988.00
2018-06-03T07:14:46.192Z,95988.00
2018-06-03T07:17:16.454Z,95984.00
2018-06-03T07:19:46.697Z,95975.00
2018-06-03T07:22:16.959Z,95978.00
2018-06-03T07:24:47.227Z,95981.00
2018-06-03T07:27:17.483Z,95984.00
2018-06-03T07:29:47.697Z,95985.00
2018-06-03T07:32:17.968Z,95977.00
2018-06-03T07:34:48.683Z,95978.00
2018-06-03T07:37:19.291Z,95980.00
2018-06-03T07:39:50.066Z,95973.00
2018-06-03T07:42:20.868Z,95980.00
2018-06-03T07:44:51.125Z,95977.00
2018-06-03T07:47:21.517Z,95973.00
2018-06-03T07:49:51.745Z,95977.00
2018-06-03T07:52:22.057Z,95979.00
2018-06-03T07:54:52.948Z,95977.00
2018-06-03T07:57:23.313Z,95979.00
2018-06-03T07:59:53.491Z,95977.00
2018-06-03T08:02:23.727Z,95970.00
2018-06-03T08:04:53.931Z,95975.00
2018-06-03T08:07:24.182Z,95978.00
2018-06-03T08:09:54.383Z,95981.00
2018-06-03T08:12:24.655Z,95964.00
2018-06-03T08:14:54.914Z,95975.00
2018-06-03T08:17:25.154Z,95963.00
2018-06-03T08:19:55.395Z,95962.00
2018-06-03T08:22:25.729Z,95963.00
2018-06-03T08:24:55.976Z,95961.00
2018-06-03T08:27:26.367Z,95970.00
2018-06-03T08:29:56.579Z,95972.00
2018-06-03T08:32:26.911Z,95967.00
2018-06-03T08:34:57.139Z,95977.00
2018-06-03T08:37:27.385Z,95970.00
2018-06-03T08:39:57.600Z,95971.00
2018-06-03T08:42:27.836Z,95967.00
2018-06-03T08:44:58.039Z,95973.00
2018-06-03T08:47:28.312Z,95965.00
2018-06-03T08:49:58.539Z,95974.00
2018-06-03T08:52:28.927Z,95970.00
2018-06-03T08:54:59.171Z,95976.00
2018-06-03T08:57:29.433Z,95965.00
2018-06-03T08:59:59.910Z,95963.00
2018-06-03T09:02:30.175Z,95958.00
2018-06-03T09:05:00.698Z,95957.00
2018-06-03T09:07:30.971Z,95959.00
2018-06-03T09:10:01.214Z,95963.00
2018-06-03T09:12:31.528Z,95959.00
2018-06-03T09:15:02.906Z,95958.00
2018-06-03T09:17:33.213Z,95953.00
2018-06-03T09:20:04.070Z,95943.00
2018-06-03T09:22:34.816Z,95947.00
2018-06-03T09:25:05.637Z,95945.00
2018-06-03T09:27:36.022Z,95945.00
2018-06-03T09:30:06.500Z,95945.00
2018-06-03T09:32:36.722Z,95930.00
2018-06-03T09:35:08.450Z,95942.00
2018-06-03T09:37:38.822Z,95933.00
2018-06-03T09:40:09.660Z,95926.00
2018-06-03T09:42:40.231Z,95927.00
2018-06-03T09:45:12.127Z,95928.00
2018-06-03T09:47:43.188Z,95920.00
2018-06-03T09:50:15.314Z,95918.00
2018-06-03T09:52:46.129Z,95925.00
2018-06-03T09:55:17.569Z,95926.00
2018-06-03T09:57:48.486Z,95924.00
2018-06-03T10:00:23.337Z,95922.00
2018-06-03T10:02:53.715Z,95927.00
2018-06-03T10:05:27.403Z,95924.00
2018-06-03T10:07:57.647Z,95934.00
2018-06-03T10:10:29.637Z,95928.00
2018-06-03T10:13:00.393Z,95929.00
2018-06-03T10:15:32.501Z,95925.00
2018-06-03T10:18:03.606Z,95929.00
2018-06-03T10:20:34.010Z,95928.00
2018-06-03T10:23:04.357Z,95930.00
2018-06-03T10:25:34.668Z,95922.00
2018-06-03T10:28:05.563Z,95923.00
2018-06-03T10:30:36.588Z,95925.00
2018-06-03T10:33:07.321Z,95928.00
2018-06-03T10:35:38.710Z,95922.00
2018-06-03T10:38:08.935Z,95928.00
2018-06-03T10:40:39.783Z,95931.00
2018-06-03T10:43:10.006Z,95926.00
2018-06-03T10:45:40.991Z,95915.00
2018-06-03T10:48:11.208Z,95917.00
2018-06-03T10:50:44.909Z,95915.00
2018-06-03T10:53:16.153Z,95914.00
2018-06-03T10:55:46.649Z,95915.00
2018-06-03T10:58:16.947Z,95908.00
2018-06-03T11:00:47.230Z,95909.00
2018-06-03T11:03:17.515Z,95913.00
2018-06-03T11:05:48.103Z,95908.00
2018-06-03T11:08:18.643Z,95904.00
2018-06-03T11:10:48.895Z,95896.00
2018-06-03T11:13:19.110Z,95900.00
2018-06-03T11:15:49.504Z,95906.00
2018-06-03T11:18:23.440Z,95907.00
2018-06-03T11:20:59.140Z,95904.00
2018-06-03T11:23:31.393Z,95905.00
2018-06-03T11:26:04.063Z,95904.00
2018-06-03T11:28:34.728Z,95906.00
2018-06-03T11:31:05.118Z,95907.00
2018-06-03T11:33:41.806Z,95895.00
2018-06-03T11:36:13.600Z,95897.00
2018-06-03T11:38:47.050Z,95899.00
2018-06-03T11:41:19.645Z,95893.00
2018-06-03T11:43:53.687Z,95894.00
2018-06-03T11:47:49.880Z,95885.00
2018-06-03T11:50:22.429Z,95893.00
2018-06-03T11:52:54.495Z,95887.00
2018-06-03T11:55:26.253Z,95889.00
2018-06-03T11:58:42.356Z,95887.00
2018-06-03T12:01:16.105Z,95880.00
2018-06-03T12:03:49.620Z,95886.00
2018-06-03T12:06:22.794Z,95878.00
2018-06-03T12:08:58.204Z,95872.00
2018-06-03T12:11:30.162Z,95873.00
2018-06-03T12:14:03.745Z,95872.00
2018-06-03T12:16:37.508Z,95859.00
2018-06-03T12:19:10.058Z,95865.00
2018-06-03T12:21:43.054Z,95868.00
2018-06-03T12:24:15.084Z,95853.00
2018-06-03T12:26:48.167Z,95857.00
2018-06-03T12:29:21.921Z,95855.00
2018-06-03T12:31:56.311Z,95852.00
2018-06-03T12:34:28.124Z,95856.00
2018-06-03T12:37:00.592Z,95856.00
2018-06-03T12:39:34.737Z,95849.00
2018-06-03T12:42:05.498Z,95852.00
2018-06-03T12:44:36.046Z,95846.00
2018-06-03T12:47:07.039Z,95841.00
2018-06-03T12:49:37.536Z,95844.00
2018-06-03T12:52:08.317Z,95836.00
2018-06-03T12:54:38.949Z,95846.00
2018-06-03T12:57:09.569Z,95837.00
2018-06-03T12:59:39.810Z,95836.00
2018-06-03T13:02:10.092Z,95832.00
2018-06-03T13:04:40.291Z,95823.00
2018-06-03T13:07:10.533Z,95814.00
2018-06-03T13:09:40.760Z,95821.00
2018-06-03T13:12:10.983Z,95815.00
2018-06-03T13:14:41.227Z,95809.00
2018-06-03T13:17:11.575Z,95810.00
2018-06-03T13:19:41.799Z,95812.00
2018-06-03T13:22:12.044Z,95813.00
2018-06-03T13:24:42.251Z,95802.00
2018-06-03T13:27:13.038Z,95804.00
2018-06-03T13:29:43.318Z,95798.00
2018-06-03T13:32:13.886Z,95800.00
2018-06-03T13:34:44.166Z,95800.00
2018-06-03T13:37:14.451Z,95798.00
2018-06-03T13:39:45.132Z,95785.00
2018-06-03T13:42:15.414Z,95781.00
2018-06-03T13:44:46.038Z,95775.00
2018-06-03T13:47:16.467Z,95769.00
2018-06-03T13:49:46.683Z,95766.00
2018-06-03T13:52:17.018Z,95768.00
2018-06-03T13:54:47.138Z,95763.00
2018-06-03T13:57:17.468Z,95756.00
2018-06-03T13:59:47.720Z,95754.00
2018-06-03T14:02:17.961Z,95752.00
2018-06-03T14:04:48.194Z,95761.00
2018-06-03T14:07:18.489Z,95767.00
2018-06-03T14:09:48.834Z,95758.00
2018-06-03T14:12:19.192Z,95756.00
2018-06-03T14:14:49.484Z,95756.00
2018-06-03T14:17:19.738Z,95749.00
2018-06-03T14:19:49.943Z,95749.00
2018-06-03T14:22:20.211Z,95743.00
2018-06-03T14:24:50.447Z,95744.00
2018-06-03T14:27:20.738Z,95741.00
2018-06-03T14:29:51.128Z,95734.00
2018-06-03T14:32:21.395Z,95733.00
2018-06-03T14:34:51.708Z,95737.00
2018-06-03T14:37:21.967Z,95736.00
2018-06-03T14:39:52.222Z,95727.00
2018-06-03T14:42:22.439Z,95734.00
2018-06-03T14:44:52.763Z,95728.00
2018-06-03T14:47:23.004Z,95731.00
2018-06-03T14:49:53.280Z,95727.00
2018-06-03T14:52:23.524Z,95726.00
2018-06-03T14:54:53.762Z,95731.00
2018-06-03T14:57:24.177Z,95731.00
2018-06-03T14:59:54.411Z,95728.00
2018-06-03T15:02:24.660Z,95727.00
2018-06-03T15:04:54.927Z,95731.00
2018-06-03T15:07:25.147Z,95730.00
2018-06-03T15:09:55.414Z,95728.00
2018-06-03T15:12:25.671Z,95723.00
2018-06-03T15:15:02.696Z,95725.00
2018-06-03T15:17:32.923Z,95725.00
2018-06-03T15:20:03.174Z,95730.00
2018-06-03T15:22:33.412Z,95720.00
2018-06-03T15:25:03.823Z,95715.00
2018-06-03T15:27:34.011Z,95705.00
2018-06-03T15:30:04.304Z,95708.00
2018-06-03T15:32:34.495Z,95710.00
2018-06-03T15:35:04.743Z,95710.00
2018-06-03T15:37:35.000Z,95709.00
2018-06-03T15:40:05.356Z,95697.00
2018-06-03T15:42:35.783Z,95703.00
2018-06-03T15:45:06.135Z,95700.00
2018-06-03T15:47:36.079Z,95697.00
2018-06-03T15:50:06.200Z,95700.00
2018-06-03T15:52:36.399Z,95687.00
2018-06-03T15:55:06.649Z,95691.00
2018-06-03T15:57:36.858Z,95688.00
2018-06-03T16:00:07.276Z,95676.00
2018-06-03T16:02:37.509Z,95676.00
2018-06-03T16:05:07.859Z,95672.00
2018-06-03T16:07:38.355Z,95668.00
2018-06-03T16:10:11.779Z,95670.00
2018-06-03T16:12:42.684Z,95672.00
2018-06-03T16:15:13.199Z,95671.00
2018-06-03T16:17:43.528Z,95665.00
2018-06-03T16:20:13.844Z,95667.00
2018-06-03T16:22:44.109Z,95657.00
2018-06-03T16:25:14.318Z,95661.00
2018-06-03T16:27:44.608Z,95656.00
2018-06-03T16:30:14.840Z,95658.00
2018-06-03T16:32:45.073Z,95653.00
2018-06-03T16:35:15.991Z,95652.00
2018-06-03T16:37:46.331Z,95644.00
2018-06-03T16:40:16.587Z,95655.00
2018-06-03T16:42:46.824Z,95653.00
2018-06-03T16:45:17.071Z,95649.00
2018-06-03T16:47:47.288Z,95647.00
2018-06-03T16:50:17.571Z,95644.00
2018-06-03T16:52:47.803Z,95651.00
2018-06-03T16:55:18.083Z,95654.00
2018-06-03T16:57:48.400Z,95653.00
2018-06-03T17:00:18.681Z,95653.00
2018-06-03T17:02:48.903Z,95651.00
2018-06-03T17:05:19.143Z,95654.00
2018-06-03T17:07:49.340Z,95668.00
2018-06-03T17:10:19.659Z,95654.00
2018-06-03T17:12:54.674Z,95662.00
2018-06-03T17:15:39.468Z,95660.00
2018-06-03T17:18:09.703Z,95654.00
2018-06-03T17:20:39.927Z,95647.00
2018-06-03T17:23:10.159Z,95642.00
2018-06-03T17:25:41.677Z,95650.00
2018-06-03T17:28:12.198Z,95638.00
2018-06-03T17:30:42.449Z,95641.00
2018-06-03T17:33:12.659Z,95644.00
2018-06-03T17:35:42.926Z,95643.00
2018-06-03T17:38:13.200Z,95646.00
2018-06-03T17:40:43.527Z,95642.00
2018-06-03T17:43:14.379Z,95654.00
2018-06-03T17:45:44.728Z,95651.00
2018-06-03T17:48:14.966Z,95646.00
2018-06-03T17:50:45.225Z,95645.00
2018-06-03T17:53:15.495Z,95635.00
2018-06-03T17:55:45.772Z,95629.00
2018-06-03T17:58:16.059Z,95628.00
2018-06-03T18:00:46.311Z,95622.00
2018-06-03T18:03:16.519Z,95620.00
2018-06-03T18:05:46.824Z,95616.00
2018-06-03T18:08:17.051Z,95612.00
2018-06-03T18:10:47.307Z,95609.00
2018-06-03T18:13:17.580Z,95614.00
2018-06-03T18:15:48.000Z,95604.00
2018-06-03T18:18:18.223Z,95604.00
2018-06-03T18:20:48.547Z,95606.00
2018-06-03T18:23:18.775Z,95603.00
2018-06-03T18:25:49.092Z,95612.00
2018-06-03T18:28:19.350Z,95614.00
2018-06-03T18:30:49.616Z,95610.00
2018-06-03T18:33:19.837Z,95570.00
2018-06-03T18:35:50.090Z,95609.00
2018-06-03T18:38:20.331Z,95605.00
2018-06-03T18:40:50.630Z,95609.00
2018-06-03T18:43:20.842Z,95603.00
2018-06-03T18:45:52.454Z,95611.00
2018-06-03T18:48:22.647Z,95604.00
2018-06-03T18:50:56.271Z,95600.00
2018-06-03T18:53:27.871Z,95598.00
2018-06-03T18:55:58.276Z,95591.00
2018-06-03T18:58:28.613Z,95598.00
2018-06-03T19:00:58.856Z,95601.00
2018-06-03T19:03:29.200Z,95610.00
2018-06-03T19:05:59.671Z,95600.00
2018-06-03T19:08:30.040Z,95620.00
2018-06-03T19:11:00.062Z,95610.00
2018-06-03T19:13:30.239Z,95603.00
2018-06-03T19:16:00.485Z,95603.00
2018-06-03T19:18:30.894Z,95599.00
2018-06-03T19:21:01.269Z,95598.00
2018-06-03T19:23:31.478Z,95597.00
2018-06-03T19:26:01.965Z,95598.00
2018-06-03T19:28:32.341Z,95602.00
2018-06-03T19:31:02.815Z,95602.00
2018-06-03T19:33:33.212Z,95600.00
2018-06-03T19:36:03.459Z,95598.00
2018-06-03T19:38:33.676Z,95589.00
2018-06-03T19:41:03.987Z,95597.00
2018-06-03T19:43:34.249Z,95604.00
2018-06-03T19:46:04.671Z,95610.00
2018-06-03T19:48:35.343Z,95610.00
2018-06-03T19:51:05.631Z,95605.00
2018-06-03T19:53:36.041Z,95602.00
2018-06-03T19:56:06.333Z,95606.00
2018-06-03T19:58:36.740Z,95605.00
2018-06-03T20:01:07.610Z,95605.00
2018-06-03T20:03:38.233Z,95607.00
2018-06-03T20:06:08.601Z,95595.00
2018-06-03T20:08:39.145Z,95603.00
2018-06-03T20:11:09.929Z,95608.00
2018-06-03T20:13:40.263Z,95611.00
2018-06-03T20:16:10.396Z,95612.00
2018-06-03T20:18:40.696Z,95604.00
2018-06-03T20:21:11.166Z,95605.00
2018-06-03T20:23:41.454Z,95615.00
2018-06-03T20:26:12.793Z,95617.00
2018-06-03T20:28:43.267Z,95613.00
2018-06-03T20:31:13.515Z,95614.00
2018-06-03T20:33:45.216Z,95607.00
2018-06-03T20:36:15.588Z,95605.00
2018-06-03T20:38:47.179Z,95599.00
2018-06-03T20:41:18.427Z,95612.00
2018-06-03T20:43:49.422Z,95598.00
2018-06-03T20:46:20.304Z,95603.00
2018-06-03T20:48:51.793Z,95600.00
2018-06-03T20:51:23.433Z,95518.00
2018-06-03T20:53:54.764Z,95607.00
2018-06-03T20:56:25.953Z,95613.00
2018-06-03T20:58:56.731Z,95617.00
2018-06-03T21:01:27.346Z,95624.00
2018-06-03T21:03:59.263Z,95613.00
2018-06-03T21:06:29.842Z,95615.00
2018-06-03T21:09:01.489Z,95625.00
2018-06-03T21:11:32.291Z,95619.00
2018-06-03T21:14:04.857Z,95607.00
2018-06-03T21:16:35.564Z,95613.00
2018-06-03T21:19:06.231Z,95615.00
2018-06-03T21:21:38.393Z,95606.00
2018-06-03T21:24:09.305Z,95605.00
2018-06-03T21:26:42.471Z,95605.00
2018-06-03T21:29:13.181Z,95609.00
2018-06-03T21:31:43.830Z,95615.00
2018-06-03T21:34:14.192Z,95609.00
2018-06-03T21:36:44.407Z,95607.00
2018-06-03T21:39:15.111Z,95608.00
2018-06-03T21:41:45.355Z,95608.00
2018-06-03T21:44:15.650Z,95474.00
2018-06-03T21:46:45.858Z,95605.00
2018-06-03T21:49:16.148Z,95596.00
2018-06-03T21:51:46.378Z,95600.00
2018-06-03T21:54:16.610Z,95606.00
2018-06-03T21:56:46.796Z,95609.00
2018-06-03T21:59:17.056Z,95605.00
2018-06-03T22:01:48.179Z,95604.00
2018-06-03T22:04:19.056Z,95608.00
2018-06-03T22:06:49.981Z,95606.00
2018-06-03T22:09:20.944Z,95606.00
2018-06-03T22:11:52.303Z,95596.00
2018-06-03T22:14:23.582Z,95602.00
2018-06-03T22:16:55.032Z,95433.00
2018-06-03T22:19:25.638Z,95594.00
2018-06-03T22:21:56.306Z,95594.00
2018-06-03T22:24:27.133Z,95594.00
2018-06-03T22:26:58.747Z,95597.00
2018-06-03T22:29:29.374Z,95599.00
2018-06-03T22:32:00.101Z,95592.00
2018-06-03T22:34:30.371Z,95591.00
2018-06-03T22:37:00.592Z,95583.00
2018-06-03T22:39:30.830Z,95581.00
2018-06-03T22:42:01.107Z,95583.00
2018-06-03T22:44:31.316Z,95567.00
2018-06-03T22:47:01.571Z,95577.00
2018-06-03T22:49:31.779Z,95569.00
2018-06-03T22:52:02.014Z,95562.00
2018-06-03T22:54:32.267Z,95557.00
2018-06-03T22:58:08.411Z,95558.00
2018-06-03T23:00:38.738Z,95560.00
2018-06-03T23:03:14.919Z,95562.00
2018-06-03T23:05:45.154Z,95576.00
2018-06-03T23:08:15.362Z,95562.00
2018-06-03T23:10:48.435Z,95571.00
2018-06-03T23:13:18.683Z,95563.00
2018-06-03T23:15:48.972Z,95557.00
2018-06-03T23:18:19.220Z,95564.00
2018-06-03T23:20:49.483Z,95553.00
2018-06-03T23:23:19.799Z,95565.00
2018-06-03T23:25:50.031Z,95555.00
2018-06-03T23:28:20.306Z,95542.00
2018-06-03T23:30:50.604Z,95530.00
2018-06-03T23:33:20.547Z,95529.00
2018-06-03T23:35:50.852Z,95527.00
2018-06-03T23:38:21.079Z,95525.00
2018-06-03T23:40:51.385Z,95528.00
2018-06-03T23:43:21.687Z,95522.00
2018-06-03T23:45:52.164Z,95521.00
2018-06-03T23:48:22.368Z,95526.00
2018-06-03T23:50:52.651Z,95523.00
2018-06-03T23:53:22.873Z,95525.00
2018-06-03T23:55:53.112Z,95530.00
2018-06-03T23:58:23.345Z,95516.00
